createdAt,value
2017-12-29T00:01:12.179Z,77.70
2017-12-29T00:03:39.691Z,77.30
2017-12-29T00:06:07.239Z,76.20
2017-12-29T00:08:34.766Z,76.90
2017-12-29T00:11:03.236Z,76.70
2017-12-29T00:13:31.542Z,74.70
2017-12-29T00:15:59.074Z,74.60
2017-12-29T00:18:27.378Z,74.50
2017-12-29T00:20:54.901Z,74.50
2017-12-29T00:23:23.214Z,74.00
2017-12-29T00:25:50.739Z,73.80
2017-12-29T00:28:19.036Z,74.70
2017-12-29T00:30:46.605Z,74.70
2017-12-29T00:33:14.121Z,75.30
2017-12-29T00:35:41.675Z,75.40
2017-12-29T00:38:09.198Z,75.50
2017-12-29T00:40:36.755Z,76.30
2017-12-29T00:43:04.274Z,77.80
2017-12-29T00:45:32.558Z,76.50
2017-12-29T00:48:00.149Z,76.50
2017-12-29T00:50:27.648Z,75.30
2017-12-29T00:52:55.966Z,74.60
2017-12-29T00:55:23.486Z,74.50
2017-12-29T00:57:51.038Z,74.40
2017-12-29T01:00:19.322Z,73.80
2017-12-29T01:02:47.619Z,73.70
2017-12-29T01:05:15.182Z,73.60
2017-12-29T01:07:42.703Z,75.10
2017-12-29T01:10:10.278Z,75.10
2017-12-29T01:12:37.822Z,75.50
2017-12-29T01:15:06.271Z,74.20
2017-12-29T01:17:33.827Z,73.80
2017-12-29T01:20:02.343Z,74.50
2017-12-29T01:22:29.894Z,75.60
2017-12-29T01:24:57.414Z,75.50
2017-12-29T01:27:24.945Z,74.70
2017-12-29T01:29:52.537Z,74.30
2017-12-29T01:32:20.087Z,73.90
2017-12-29T01:34:47.634Z,73.90
2017-12-29T01:37:16.111Z,74.70
2017-12-29T01:39:43.662Z,73.90
2017-12-29T01:42:11.957Z,76.70
2017-12-29T01:44:39.482Z,76.70
2017-12-29T01:47:07.026Z,77.10
2017-12-29T01:49:34.549Z,77.00
2017-12-29T01:52:02.109Z,75.80
2017-12-29T01:54:29.630Z,78.10
2017-12-29T01:56:57.160Z,79.20
2017-12-29T01:59:24.722Z,79.50
2017-12-29T02:01:52.240Z,79.80
2017-12-29T02:04:19.807Z,79.50
2017-12-29T02:06:47.339Z,78.10
2017-12-29T02:09:14.858Z,76.70
2017-12-29T02:11:42.414Z,75.40
2017-12-29T02:14:11.122Z,74.00
2017-12-29T02:16:39.430Z,74.50
2017-12-29T02:19:07.064Z,73.80
2017-12-29T02:21:34.620Z,74.40
2017-12-29T02:24:02.173Z,74.50
2017-12-29T02:26:29.685Z,73.10
2017-12-29T02:28:59.167Z,71.90
2017-12-29T02:31:26.694Z,70.50
2017-12-29T02:33:55.007Z,67.70
2017-12-29T02:36:22.547Z,67.50
2017-12-29T02:38:50.106Z,68.90
2017-12-29T02:41:17.626Z,66.50
2017-12-29T02:43:45.154Z,65.20
2017-12-29T02:46:12.713Z,66.60
2017-12-29T02:48:41.186Z,65.40
2017-12-29T02:51:08.942Z,66.40
2017-12-29T02:53:36.466Z,63.40
2017-12-29T02:56:04.750Z,70.00
2017-12-29T02:58:32.307Z,70.00
2017-12-29T03:00:59.843Z,71.50
2017-12-29T03:03:27.398Z,71.60
2017-12-29T03:05:54.911Z,72.60
2017-12-29T03:08:22.462Z,72.20
2017-12-29T03:10:49.981Z,73.00
2017-12-29T03:13:18.275Z,74.90
2017-12-29T03:15:46.591Z,75.50
2017-12-29T03:18:14.111Z,75.50
2017-12-29T03:20:41.650Z,76.00
2017-12-29T03:23:09.939Z,75.60
2017-12-29T03:25:38.261Z,75.70
2017-12-29T03:28:05.792Z,75.60
2017-12-29T03:30:33.342Z,75.50
2017-12-29T03:33:00.874Z,75.90
2017-12-29T03:35:29.163Z,75.30
2017-12-29T03:37:57.474Z,74.20
2017-12-29T03:40:25.058Z,74.20
2017-12-29T03:42:52.770Z,74.40
2017-12-29T03:45:22.150Z,73.90
2017-12-29T03:47:49.671Z,73.00
2017-12-29T03:50:19.138Z,73.10
2017-12-29T03:52:46.673Z,74.20
2017-12-29T03:55:14.367Z,73.70
2017-12-29T03:57:41.891Z,75.50
2017-12-29T04:00:09.807Z,75.10
2017-12-29T04:02:37.326Z,74.20
2017-12-29T04:05:04.898Z,73.90
2017-12-29T04:07:33.206Z,74.40
2017-12-29T04:10:00.729Z,74.40
2017-12-29T04:12:30.979Z,76.60
2017-12-29T04:14:58.496Z,76.50
2017-12-29T04:17:26.044Z,75.90
2017-12-29T04:19:53.557Z,77.30
2017-12-29T04:22:21.072Z,77.00
2017-12-29T04:24:50.627Z,77.60
2017-12-29T04:27:18.143Z,77.50
2017-12-29T04:29:48.400Z,75.70
2017-12-29T04:32:15.922Z,75.60
2017-12-29T04:34:43.442Z,76.30
2017-12-29T04:37:12.907Z,75.50
2017-12-29T04:39:40.435Z,76.20
2017-12-29T04:42:07.984Z,75.00
2017-12-29T04:44:35.507Z,75.10
2017-12-29T04:47:03.986Z,76.50
2017-12-29T04:49:31.534Z,77.10
2017-12-29T04:51:59.074Z,76.90
2017-12-29T04:54:26.620Z,77.00
2017-12-29T04:56:54.262Z,77.20
2017-12-29T04:59:21.782Z,77.50
2017-12-29T05:01:49.327Z,77.20
2017-12-29T05:04:16.858Z,76.90
2017-12-29T05:06:44.398Z,77.70
2017-12-29T05:09:11.918Z,77.90
2017-12-29T05:11:39.470Z,75.70
2017-12-29T05:14:06.993Z,75.90
2017-12-29T05:16:35.283Z,75.40
2017-12-29T05:19:02.831Z,75.40
2017-12-29T05:21:31.118Z,74.30
2017-12-29T05:23:58.667Z,74.20
2017-12-29T05:26:26.954Z,76.50
2017-12-29T05:28:54.732Z,76.40
2017-12-29T05:31:23.215Z,76.70
2017-12-29T05:33:50.738Z,75.20
2017-12-29T05:36:18.283Z,75.20
2017-12-29T05:38:45.806Z,75.50
2017-12-29T05:41:14.206Z,74.10
2017-12-29T05:43:41.739Z,75.20
2017-12-29T05:46:09.274Z,73.70
2017-12-29T05:48:36.826Z,74.90
2017-12-29T05:51:04.357Z,75.20
2017-12-29T05:53:31.917Z,74.00
2017-12-29T05:55:59.438Z,74.10
2017-12-29T05:58:26.967Z,73.00
2017-12-29T06:00:54.506Z,73.40
2017-12-29T06:03:22.798Z,73.90
2017-12-29T06:05:50.347Z,73.90
2017-12-29T06:08:17.866Z,73.10
2017-12-29T06:10:45.420Z,75.00
2017-12-29T06:13:12.972Z,74.80
2017-12-29T06:15:40.536Z,73.80
2017-12-29T06:18:08.098Z,73.70
2017-12-29T06:20:35.626Z,71.80
2017-12-29T06:23:03.174Z,72.20
2017-12-29T06:25:30.703Z,70.90
2017-12-29T06:27:58.246Z,71.70
2017-12-29T06:30:26.765Z,71.30
2017-12-29T06:32:54.286Z,71.80
2017-12-29T06:35:21.842Z,73.10
2017-12-29T06:37:49.367Z,72.70
2017-12-29T06:40:16.951Z,71.50
2017-12-29T06:42:44.491Z,72.40
2017-12-29T06:45:12.031Z,73.60
2017-12-29T06:47:39.585Z,73.70
2017-12-29T06:50:07.111Z,74.30
2017-12-29T06:52:35.435Z,74.00
2017-12-29T06:55:02.970Z,74.00
2017-12-29T06:57:31.451Z,73.80
2017-12-29T07:00:01.006Z,75.60
2017-12-29T07:02:28.534Z,74.40
2017-12-29T07:04:56.083Z,74.40
2017-12-29T07:07:23.612Z,74.60
2017-12-29T07:09:51.135Z,73.60
2017-12-29T07:12:18.687Z,73.20
2017-12-29T07:14:46.211Z,73.60
2017-12-29T07:17:13.763Z,72.60
2017-12-29T07:19:41.294Z,74.70
2017-12-29T07:22:08.822Z,73.70
2017-12-29T07:24:36.383Z,73.20
2017-12-29T07:27:03.903Z,73.70
2017-12-29T07:29:31.451Z,73.20
2017-12-29T07:32:00.719Z,73.70
2017-12-29T07:34:28.250Z,73.70
2017-12-29T07:36:55.818Z,73.70
2017-12-29T07:39:23.351Z,73.20
2017-12-29T07:41:51.059Z,74.70
2017-12-29T07:44:18.586Z,73.70
2017-12-29T07:46:46.146Z,74.70
2017-12-29T07:49:13.684Z,73.90
2017-12-29T07:51:41.208Z,73.50
2017-12-29T07:54:08.758Z,73.50
2017-12-29T07:56:36.282Z,74.90
2017-12-29T07:59:03.838Z,74.00
2017-12-29T08:01:31.370Z,73.90
2017-12-29T08:03:58.894Z,74.00
2017-12-29T08:06:26.457Z,73.70
2017-12-29T08:08:55.714Z,73.50
2017-12-29T08:11:23.280Z,73.50
2017-12-29T08:13:50.812Z,72.90
2017-12-29T08:16:18.374Z,74.40
2017-12-29T08:18:45.902Z,73.70
2017-12-29T08:21:14.190Z,73.20
2017-12-29T08:23:41.746Z,73.20
2017-12-29T08:26:09.424Z,72.70
2017-12-29T08:28:36.986Z,73.40
2017-12-29T08:31:04.530Z,74.00
2017-12-29T08:33:32.126Z,72.70
2017-12-29T08:36:00.608Z,73.10
2017-12-29T08:38:28.143Z,72.40
2017-12-29T08:40:56.903Z,71.10
2017-12-29T08:43:24.432Z,72.20
2017-12-29T08:45:52.006Z,70.90
2017-12-29T08:48:19.531Z,71.00
2017-12-29T08:50:47.860Z,73.50
2017-12-29T08:53:15.415Z,73.50
2017-12-29T08:55:42.939Z,74.40
2017-12-29T08:58:10.500Z,72.50
2017-12-29T09:00:38.031Z,72.30
2017-12-29T09:03:05.573Z,70.40
2017-12-29T09:05:33.118Z,69.10
2017-12-29T09:08:00.643Z,69.50
2017-12-29T09:10:29.185Z,69.90
2017-12-29T09:12:56.717Z,68.90
2017-12-29T09:15:24.274Z,68.40
2017-12-29T09:17:51.862Z,66.70
2017-12-29T09:20:19.407Z,67.50
2017-12-29T09:22:46.962Z,66.30
2017-12-29T09:25:14.520Z,67.10
2017-12-29T09:27:42.050Z,68.00
2017-12-29T09:30:09.598Z,68.30
2017-12-29T09:32:38.123Z,67.50
2017-12-29T09:35:06.304Z,67.60
2017-12-29T09:37:33.863Z,66.30
2017-12-29T09:40:01.434Z,67.20
2017-12-29T09:42:29.914Z,66.20
2017-12-29T09:44:57.441Z,66.10
2017-12-29T09:47:25.004Z,64.50
2017-12-29T09:49:52.524Z,64.10
2017-12-29T09:52:20.086Z,64.00
2017-12-29T09:54:47.606Z,63.70
2017-12-29T09:57:15.154Z,64.00
2017-12-29T09:59:42.689Z,64.40
2017-12-29T10:02:10.210Z,63.40
2017-12-29T10:04:38.536Z,63.10
2017-12-29T10:07:06.059Z,63.00
2017-12-29T10:09:34.367Z,62.60
2017-12-29T10:12:01.913Z,62.70
2017-12-29T10:14:31.427Z,63.10
2017-12-29T10:16:58.953Z,61.80
2017-12-29T10:19:26.514Z,62.50
2017-12-29T10:21:54.059Z,62.80
2017-12-29T10:24:21.574Z,61.10
2017-12-29T10:26:50.049Z,62.60
2017-12-29T10:29:17.570Z,62.40
2017-12-29T10:31:45.897Z,65.00
2017-12-29T10:34:13.427Z,64.70
2017-12-29T10:36:41.723Z,61.50
2017-12-29T10:39:09.269Z,61.60
2017-12-29T10:41:37.734Z,60.00
2017-12-29T10:44:08.023Z,62.60
2017-12-29T10:46:35.539Z,62.50
2017-12-29T10:49:03.095Z,62.50
2017-12-29T10:51:30.621Z,61.40
2017-12-29T10:53:58.906Z,61.80
2017-12-29T10:56:26.456Z,61.80
2017-12-29T10:58:53.983Z,60.40
2017-12-29T11:01:21.527Z,60.50
2017-12-29T11:03:49.094Z,60.20
2017-12-29T11:06:16.648Z,60.50
2017-12-29T11:08:44.198Z,62.30
2017-12-29T11:11:11.720Z,60.50
2017-12-29T11:13:40.024Z,61.90
2017-12-29T11:16:07.546Z,61.90
2017-12-29T11:18:37.023Z,62.50
2017-12-29T11:21:04.547Z,63.40
2017-12-29T11:23:32.073Z,59.50
2017-12-29T11:26:01.626Z,59.00
2017-12-29T11:28:29.146Z,59.50
2017-12-29T11:30:57.518Z,60.30
2017-12-29T11:33:25.036Z,60.30
2017-12-29T11:35:52.563Z,59.20
2017-12-29T11:38:20.108Z,58.70
2017-12-29T11:40:47.657Z,58.40
2017-12-29T11:43:17.991Z,59.00
2017-12-29T11:45:45.516Z,58.80
2017-12-29T11:48:13.041Z,58.50
2017-12-29T11:50:40.591Z,58.60
2017-12-29T11:53:08.105Z,57.40
2017-12-29T11:55:36.414Z,58.80
2017-12-29T11:58:03.987Z,58.70
2017-12-29T12:00:31.549Z,57.40
2017-12-29T12:02:59.071Z,58.50
2017-12-29T12:05:27.358Z,59.40
2017-12-29T12:07:55.862Z,59.40
2017-12-29T12:10:23.377Z,60.10
2017-12-29T12:12:50.945Z,59.70
2017-12-29T12:15:18.459Z,60.20
2017-12-29T12:17:46.008Z,60.40
2017-12-29T12:20:13.519Z,58.90
2017-12-29T12:22:42.001Z,60.20
2017-12-29T12:25:09.558Z,59.40
2017-12-29T12:27:37.078Z,59.30
2017-12-29T12:30:04.646Z,58.40
2017-12-29T12:32:33.131Z,60.20
2017-12-29T12:35:00.898Z,59.30
2017-12-29T12:37:28.417Z,60.70
2017-12-29T12:39:55.958Z,60.20
2017-12-29T12:42:23.490Z,61.40
2017-12-29T12:44:51.986Z,61.40
2017-12-29T12:47:19.537Z,60.50
2017-12-29T12:49:47.070Z,60.10
2017-12-29T12:52:14.642Z,57.00
2017-12-29T12:54:42.160Z,54.50
2017-12-29T12:57:09.718Z,51.00
2017-12-29T12:59:37.235Z,50.70
2017-12-29T13:02:04.786Z,50.70
2017-12-29T13:04:33.068Z,50.20
2017-12-29T13:07:00.727Z,50.10
2017-12-29T13:09:28.246Z,52.20
2017-12-29T13:11:55.765Z,53.70
2017-12-29T13:14:23.318Z,50.60
2017-12-29T13:16:51.386Z,47.80
2017-12-29T13:19:18.927Z,46.80
2017-12-29T13:21:46.458Z,48.40
2017-12-29T13:24:14.005Z,48.40
2017-12-29T13:26:41.602Z,49.50
2017-12-29T13:29:09.134Z,47.00
2017-12-29T13:31:36.648Z,45.90
2017-12-29T13:34:06.139Z,45.70
2017-12-29T13:36:34.637Z,46.70
2017-12-29T13:39:02.187Z,46.20
2017-12-29T13:41:29.705Z,47.50
2017-12-29T13:43:57.245Z,51.00
2017-12-29T13:46:24.796Z,55.20
2017-12-29T13:48:52.307Z,56.50
2017-12-29T13:51:19.871Z,56.50
2017-12-29T13:53:47.396Z,57.20
2017-12-29T13:56:14.921Z,56.00
2017-12-29T13:58:42.478Z,57.50
2017-12-29T14:01:10.007Z,57.10
2017-12-29T14:03:37.555Z,54.90
2017-12-29T14:06:05.074Z,54.70
2017-12-29T14:08:34.552Z,54.60
2017-12-29T14:11:02.095Z,53.70
2017-12-29T14:13:29.634Z,51.70
2017-12-29T14:15:57.159Z,49.20
2017-12-29T14:18:24.702Z,51.90
2017-12-29T14:20:53.201Z,51.50
2017-12-29T14:23:20.712Z,50.00
2017-12-29T14:25:48.259Z,51.60
2017-12-29T14:28:15.771Z,51.60
2017-12-29T14:30:43.315Z,51.40
2017-12-29T14:33:10.830Z,52.30
2017-12-29T14:35:38.387Z,52.40
2017-12-29T14:38:05.910Z,53.70
2017-12-29T14:40:33.454Z,52.50
2017-12-29T14:43:00.976Z,52.20
2017-12-29T14:45:28.526Z,50.40
2017-12-29T14:47:56.052Z,50.50
2017-12-29T14:50:25.326Z,47.30
2017-12-29T14:52:52.899Z,47.20
2017-12-29T14:55:20.423Z,46.30
2017-12-29T14:57:47.979Z,47.10
2017-12-29T15:00:16.836Z,45.40
2017-12-29T15:02:44.387Z,45.40
2017-12-29T15:05:11.911Z,44.40
2017-12-29T15:07:39.455Z,45.10
2017-12-29T15:10:06.971Z,45.10
2017-12-29T15:12:34.522Z,45.10
2017-12-29T15:15:02.042Z,44.70
2017-12-29T15:17:29.588Z,44.50
2017-12-29T15:19:57.107Z,44.90
2017-12-29T15:22:24.667Z,44.90
2017-12-29T15:24:52.219Z,45.00
2017-12-29T15:27:20.505Z,45.50
2017-12-29T15:29:48.058Z,45.50
2017-12-29T15:32:16.349Z,48.20
2017-12-29T15:34:45.830Z,48.20
2017-12-29T15:37:14.112Z,52.20
2017-12-29T15:39:44.407Z,54.50
2017-12-29T15:42:12.882Z,54.50
2017-12-29T15:44:40.431Z,54.40
2017-12-29T15:47:07.954Z,55.00
2017-12-29T15:49:35.466Z,55.60
2017-12-29T15:52:03.022Z,55.40
2017-12-29T15:54:30.538Z,55.20
2017-12-29T15:56:59.071Z,54.80
2017-12-29T15:59:26.591Z,55.10
2017-12-29T16:01:58.971Z,56.10
2017-12-29T16:04:26.481Z,55.50
2017-12-29T16:06:54.791Z,55.50
2017-12-29T16:09:22.343Z,55.50
2017-12-29T16:11:49.886Z,56.00
2017-12-29T16:14:17.402Z,56.90
2017-12-29T16:16:46.850Z,56.70
2017-12-29T16:19:15.350Z,56.90
2017-12-29T16:21:42.876Z,57.50
2017-12-29T16:24:10.423Z,57.20
2017-12-29T16:26:38.886Z,58.10
2017-12-29T16:29:06.432Z,58.00
2017-12-29T16:31:34.951Z,58.20
2017-12-29T16:34:03.265Z,58.40
2017-12-29T16:36:30.787Z,58.30
2017-12-29T16:38:58.322Z,58.70
2017-12-29T16:41:25.835Z,58.90
2017-12-29T16:43:53.376Z,58.80
2017-12-29T16:46:20.910Z,58.70
2017-12-29T16:48:49.191Z,59.60
2017-12-29T16:51:17.532Z,59.80
2017-12-29T16:53:46.022Z,59.70
2017-12-29T16:56:13.578Z,59.80
2017-12-29T16:58:41.099Z,60.10
2017-12-29T17:01:08.711Z,60.60
2017-12-29T17:03:36.560Z,60.70
2017-12-29T17:06:04.668Z,61.50
2017-12-29T17:08:33.082Z,61.50
2017-12-29T17:11:01.051Z,60.70
2017-12-29T17:13:28.879Z,60.60
2017-12-29T17:15:57.044Z,60.90
2017-12-29T17:18:24.962Z,61.20
2017-12-29T17:20:52.810Z,61.00
2017-12-29T17:23:20.355Z,60.50
2017-12-29T17:25:47.914Z,61.70
2017-12-29T17:28:15.477Z,62.90
2017-12-29T17:30:43.970Z,64.40
2017-12-29T17:33:11.515Z,66.00
2017-12-29T17:35:39.038Z,66.90
2017-12-29T17:38:06.584Z,67.60
2017-12-29T17:40:34.111Z,68.80
2017-12-29T17:43:01.656Z,71.00
2017-12-29T17:45:29.222Z,70.40
2017-12-29T17:47:56.780Z,70.50
2017-12-29T17:50:24.381Z,71.60
2017-12-29T17:52:51.910Z,73.00
2017-12-29T17:55:19.462Z,71.50
2017-12-29T17:57:46.999Z,72.70
2017-12-29T18:00:14.547Z,73.00
2017-12-29T18:02:42.849Z,74.60
2017-12-29T18:05:11.334Z,74.60
2017-12-29T18:07:38.846Z,74.40
2017-12-29T18:10:06.553Z,75.20
2017-12-29T18:12:34.126Z,75.30
2017-12-29T18:15:02.626Z,78.30
2017-12-29T18:17:30.171Z,80.30
2017-12-29T18:19:57.688Z,80.60
2017-12-29T18:22:25.247Z,80.10
2017-12-29T18:24:52.774Z,78.90
2017-12-29T18:27:20.717Z,79.00
2017-12-29T18:29:48.231Z,80.90
2017-12-29T18:32:15.759Z,80.00
2017-12-29T18:34:43.306Z,81.90
2017-12-29T18:37:10.960Z,83.70
2017-12-29T18:39:38.538Z,84.60
2017-12-29T18:42:06.064Z,86.10
2017-12-29T18:44:35.562Z,83.30
2017-12-29T18:47:03.082Z,85.20
2017-12-29T18:49:31.710Z,82.50
2017-12-29T18:51:59.251Z,83.20
2017-12-29T18:54:26.767Z,82.30
2017-12-29T18:56:54.338Z,82.80
2017-12-29T18:59:22.628Z,82.00
2017-12-29T19:01:50.948Z,80.40
2017-12-29T19:04:18.461Z,80.40
2017-12-29T19:06:46.780Z,80.90
2017-12-29T19:09:14.303Z,80.90
2017-12-29T19:11:41.857Z,79.70
2017-12-29T19:14:09.387Z,80.90
2017-12-29T19:16:36.915Z,81.00
2017-12-29T19:19:04.748Z,80.90
2017-12-29T19:21:32.266Z,81.60
2017-12-29T19:23:59.808Z,80.80
2017-12-29T19:26:27.331Z,80.10
2017-12-29T19:28:54.879Z,79.00
2017-12-29T19:31:23.362Z,78.80
2017-12-29T19:33:50.913Z,79.70
2017-12-29T19:36:18.432Z,79.00
2017-12-29T19:38:45.954Z,77.20
2017-12-29T19:41:14.454Z,76.90
2017-12-29T19:43:41.972Z,77.50
2017-12-29T19:46:09.518Z,75.80
2017-12-29T19:48:37.801Z,74.10
2017-12-29T19:51:06.355Z,74.10
2017-12-29T19:53:34.650Z,72.40
2017-12-29T19:56:04.181Z,72.30
2017-12-29T19:58:31.694Z,73.00
2017-12-29T20:01:00.206Z,72.60
2017-12-29T20:03:27.722Z,74.00
2017-12-29T20:05:55.235Z,73.50
2017-12-29T20:08:22.784Z,73.90
2017-12-29T20:10:51.287Z,74.30
2017-12-29T20:13:20.766Z,74.60
2017-12-29T20:15:48.317Z,75.30
2017-12-29T20:18:15.866Z,74.60
2017-12-29T20:20:44.173Z,74.90
2017-12-29T20:23:13.684Z,75.00
2017-12-29T20:25:41.329Z,74.50
2017-12-29T20:28:08.851Z,75.60
2017-12-29T20:30:36.398Z,75.40
2017-12-29T20:33:03.918Z,75.90
2017-12-29T20:35:31.504Z,75.60
2017-12-29T20:37:59.024Z,75.70
2017-12-29T20:40:26.568Z,75.20
2017-12-29T20:42:54.851Z,75.90
2017-12-29T20:45:22.401Z,75.90
2017-12-29T20:47:49.951Z,75.10
2017-12-29T20:50:17.498Z,74.50
2017-12-29T20:52:45.007Z,74.20
2017-12-29T20:55:13.285Z,72.50
2017-12-29T20:57:41.355Z,72.30
2017-12-29T21:00:09.722Z,73.40
2017-12-29T21:02:37.301Z,73.00
2017-12-29T21:05:04.880Z,72.10
2017-12-29T21:07:32.497Z,72.20
2017-12-29T21:10:01.238Z,70.90
2017-12-29T21:12:28.837Z,69.90
2017-12-29T21:14:57.440Z,68.50
2017-12-29T21:17:25.371Z,68.40
2017-12-29T21:19:53.173Z,70.50
2017-12-29T21:22:21.764Z,70.10
2017-12-29T21:24:51.466Z,67.70
2017-12-29T21:27:19.997Z,69.20
2017-12-29T21:29:49.553Z,68.00
2017-12-29T21:32:17.418Z,68.30
2017-12-29T21:34:45.009Z,68.00
2017-12-29T21:37:12.849Z,67.40
2017-12-29T21:39:40.412Z,66.10
2017-12-29T21:42:07.995Z,66.60
2017-12-29T21:44:35.555Z,66.80
2017-12-29T21:47:03.083Z,65.40
2017-12-29T21:49:30.778Z,66.70
2017-12-29T21:51:58.393Z,66.80
2017-12-29T21:54:26.207Z,65.70
2017-12-29T21:56:54.827Z,66.20
2017-12-29T21:59:23.466Z,66.90
2017-12-29T22:01:51.302Z,66.10
2017-12-29T22:04:19.082Z,66.20
2017-12-29T22:06:46.786Z,65.30
2017-12-29T22:09:15.270Z,64.80
2017-12-29T22:11:44.606Z,65.40
2017-12-29T22:14:13.127Z,65.40
2017-12-29T22:16:40.964Z,65.20
2017-12-29T22:19:08.616Z,65.40
2017-12-29T22:21:36.340Z,66.20
2017-12-29T22:24:04.150Z,66.50
2017-12-29T22:26:31.738Z,65.90
2017-12-29T22:29:00.161Z,64.70
2017-12-29T22:31:29.793Z,65.20
2017-12-29T22:33:57.607Z,64.40
2017-12-29T22:36:25.196Z,64.80
2017-12-29T22:38:53.631Z,64.30
2017-12-29T22:41:21.449Z,64.30
2017-12-29T22:43:49.950Z,63.00
2017-12-29T22:46:17.514Z,63.20
2017-12-29T22:48:45.165Z,63.30
2017-12-29T22:51:12.838Z,62.90
2017-12-29T22:53:40.468Z,64.60
2017-12-29T22:56:09.044Z,63.50
2017-12-29T22:58:36.776Z,62.60
2017-12-29T23:01:04.376Z,62.70
2017-12-29T23:03:31.993Z,63.90
2017-12-29T23:06:00.725Z,63.90
2017-12-29T23:08:30.227Z,64.20
2017-12-29T23:10:57.802Z,63.60
2017-12-29T23:13:25.669Z,64.20
2017-12-29T23:15:55.064Z,63.40
2017-12-29T23:18:24.678Z,63.40
2017-12-29T23:20:53.354Z,64.50
2017-12-29T23:23:22.942Z,64.10
2017-12-29T23:25:51.059Z,64.40
2017-12-29T23:28:18.615Z,64.40
2017-12-29T23:30:46.505Z,64.10
2017-12-29T23:33:14.148Z,63.60
2017-12-29T23:35:42.042Z,62.60
2017-12-29T23:38:09.571Z,63.80
2017-12-29T23:40:38.091Z,64.20
2017-12-29T23:43:05.904Z,63.50
2017-12-29T23:45:33.553Z,62.70
2017-12-29T23:48:01.438Z,63.30
2017-12-29T23:50:29.034Z,62.90
2017-12-29T23:52:56.614Z,63.80
2017-12-29T23:55:24.950Z,64.60
2017-12-29T23:57:53.406Z,64.60
